createdAt,value
2023-04-12T00:01:27.977Z,100803.13
2023-04-12T00:03:56.251Z,100815.72
2023-04-12T00:06:32.703Z,100807.97
2023-04-12T00:09:01.156Z,100718.28
2023-04-12T00:11:29.992Z,100804.28
2023-04-12T00:13:59.222Z,100789.66
2023-04-12T00:16:27.424Z,100797.75
2023-04-12T00:18:55.690Z,100756.38
2023-04-12T00:21:23.971Z,100790.31
2023-04-12T00:23:52.119Z,100785.31
2023-04-12T00:26:21.851Z,100776.81
2023-04-12T00:28:49.752Z,100765.69
2023-04-12T00:31:19.073Z,100759.78
2023-04-12T00:33:47.112Z,100707.53
2023-04-12T00:36:14.964Z,100736.31
2023-04-12T00:38:43.384Z,100745.47
2023-04-12T00:41:11.279Z,100745.47
2023-04-12T00:43:40.573Z,100747.81
2023-04-12T00:46:08.970Z,100759.72
2023-04-12T00:48:38.587Z,100755.13
2023-04-12T00:51:08.077Z,100738.28
2023-04-12T00:53:36.651Z,100699.63
2023-04-12T00:56:05.632Z,100711.06
2023-04-12T00:58:33.619Z,100742.09
2023-04-12T01:01:01.775Z,100729.56
2023-04-12T01:03:30.950Z,100752.31
2023-04-12T01:06:10.364Z,100751.34
2023-04-12T01:08:59.394Z,100758.47
2023-04-12T01:11:32.303Z,100755.47
2023-04-12T01:14:07.444Z,100765.28
2023-04-12T01:16:41.094Z,100767.66
2023-04-12T01:19:35.223Z,100761.63
2023-04-12T01:22:14.611Z,100697.50
2023-04-12T01:24:50.915Z,100778.44
2023-04-12T01:27:33.675Z,100761.91
2023-04-12T01:30:04.493Z,100710.34
2023-04-12T01:32:34.408Z,100762.72
2023-04-12T01:35:04.651Z,100802.34
2023-04-12T01:37:33.076Z,100800.84
2023-04-12T01:40:02.125Z,100777.97
2023-04-12T01:42:31.438Z,100783.22
2023-04-12T01:44:59.590Z,100788.63
2023-04-12T01:47:28.091Z,100775.63
2023-04-12T01:50:05.069Z,100729.06
2023-04-12T01:52:38.201Z,100754.69
2023-04-12T01:55:07.891Z,100766.31
2023-04-12T01:57:39.067Z,100756.66
2023-04-12T02:00:11.007Z,100760.00
2023-04-12T02:02:40.228Z,100762.34
2023-04-12T02:05:10.447Z,100753.38
2023-04-12T02:07:38.821Z,100693.09
2023-04-12T02:10:07.720Z,100763.25
2023-04-12T02:12:37.015Z,100760.72
2023-04-12T02:15:08.219Z,100762.22
2023-04-12T02:17:37.382Z,100761.47
2023-04-12T02:20:09.737Z,100763.03
2023-04-12T02:22:37.558Z,100757.75
2023-04-12T02:25:06.442Z,100756.94
2023-04-12T02:27:34.542Z,100740.00
2023-04-12T02:30:04.571Z,100764.81
2023-04-12T02:32:32.945Z,100756.06
2023-04-12T02:35:02.946Z,100756.88
2023-04-12T02:37:31.745Z,100757.75
2023-04-12T02:40:02.701Z,100679.44
2023-04-12T02:42:30.866Z,100749.81
2023-04-12T02:44:58.704Z,100748.94
2023-04-12T02:47:30.228Z,100755.75
2023-04-12T02:49:58.798Z,100755.75
2023-04-12T02:52:26.785Z,100769.56
2023-04-12T02:54:54.674Z,100757.38
2023-04-12T02:57:23.660Z,100754.63
2023-04-12T02:59:53.246Z,100764.22
2023-04-12T03:02:21.992Z,100717.91
2023-04-12T03:04:52.055Z,100771.13
2023-04-12T03:07:21.117Z,100757.84
2023-04-12T03:09:50.444Z,100767.03
2023-04-12T03:12:18.492Z,100759.16
2023-04-12T03:14:46.869Z,100765.25
2023-04-12T03:17:14.801Z,100764.44
2023-04-12T03:19:42.865Z,100770.47
2023-04-12T03:22:12.190Z,100760.81
2023-04-12T03:24:42.960Z,100757.09
2023-04-12T03:27:10.933Z,100771.06
2023-04-12T03:29:38.978Z,100771.22
2023-04-12T03:32:07.307Z,100774.28
2023-04-12T03:34:35.614Z,100740.78
2023-04-12T03:37:03.719Z,100697.97
2023-04-12T03:39:32.976Z,100782.00
2023-04-12T03:42:01.006Z,100761.38
2023-04-12T03:44:29.125Z,100766.75
2023-04-12T03:46:57.135Z,100765.09
2023-04-12T03:49:25.100Z,100776.53
2023-04-12T03:51:53.275Z,100723.81
2023-04-12T03:54:22.053Z,100771.19
2023-04-12T03:56:51.352Z,100768.66
2023-04-12T03:59:19.367Z,100774.75
2023-04-12T04:01:47.789Z,100770.28
2023-04-12T04:04:15.889Z,100734.66
2023-04-12T04:06:44.018Z,100768.50
2023-04-12T04:09:11.875Z,100706.09
2023-04-12T04:11:39.768Z,100766.66
2023-04-12T04:14:09.186Z,100765.63
2023-04-12T04:16:37.360Z,100759.41
2023-04-12T04:19:05.357Z,100762.75
2023-04-12T04:21:33.267Z,100766.91
2023-04-12T04:24:02.414Z,100718.94
2023-04-12T04:26:33.731Z,100753.69
2023-04-12T04:29:04.886Z,100667.94
2023-04-12T04:31:36.604Z,100762.16
2023-04-12T04:34:06.037Z,100754.22
2023-04-12T04:36:36.568Z,100707.25
2023-04-12T04:39:05.383Z,100680.53
2023-04-12T04:41:34.700Z,100746.41
2023-04-12T04:44:04.700Z,100746.41
2023-04-12T04:46:34.408Z,100743.06
2023-04-12T04:49:02.596Z,100742.31
2023-04-12T04:51:30.452Z,100744.16
2023-04-12T04:53:58.722Z,100720.25
2023-04-12T04:56:26.757Z,100711.78
2023-04-12T04:58:56.806Z,100738.66
2023-04-12T05:01:28.758Z,100695.00
2023-04-12T05:03:59.610Z,100732.69
2023-04-12T05:06:27.701Z,100735.56
2023-04-12T05:08:56.828Z,100732.84
2023-04-12T05:11:24.769Z,100742.00
2023-04-12T05:13:52.816Z,100738.72
2023-04-12T05:16:20.829Z,100747.63
2023-04-12T05:18:48.696Z,100754.75
2023-04-12T05:21:18.166Z,100758.38
2023-04-12T05:23:47.880Z,100752.47
2023-04-12T05:26:15.790Z,100761.44
2023-04-12T05:28:43.797Z,100733.28
2023-04-12T05:31:11.907Z,100730.94
2023-04-12T05:33:39.878Z,100763.00
2023-04-12T05:36:08.679Z,100612.91
2023-04-12T05:38:38.052Z,100761.72
2023-04-12T05:41:06.745Z,100710.44
2023-04-12T05:43:37.658Z,100756.34
2023-04-12T05:46:07.883Z,100685.53
2023-04-12T05:48:36.223Z,100751.63
2023-04-12T05:51:05.089Z,100741.97
2023-04-12T05:53:33.196Z,100655.06
2023-04-12T05:56:02.541Z,100758.38
2023-04-12T05:58:30.457Z,100762.94
2023-04-12T06:00:58.771Z,100760.44
2023-04-12T06:03:27.090Z,100759.88
2023-04-12T06:05:55.286Z,100760.94
2023-04-12T06:08:23.340Z,100762.13
2023-04-12T06:10:54.280Z,100755.44
2023-04-12T06:13:23.534Z,100761.91
2023-04-12T06:15:51.568Z,100759.53
2023-04-12T06:18:19.635Z,100726.75
2023-04-12T06:20:47.539Z,100718.31
2023-04-12T06:23:15.492Z,100764.75
2023-04-12T06:25:43.460Z,100765.06
2023-04-12T06:28:11.446Z,100764.63
2023-04-12T06:30:44.119Z,100763.19
2023-04-12T06:33:12.910Z,100717.28
2023-04-12T06:35:40.893Z,100740.00
2023-04-12T06:38:08.982Z,100753.81
2023-04-12T06:40:36.880Z,100761.19
2023-04-12T06:43:04.734Z,100759.78
2023-04-12T06:45:33.245Z,100755.09
2023-04-12T06:48:02.617Z,100759.88
2023-04-12T06:50:30.492Z,100764.72
2023-04-12T06:52:58.577Z,100765.19
2023-04-12T06:55:27.298Z,100778.75
2023-04-12T06:57:55.543Z,100780.19
2023-04-12T07:00:24.239Z,100761.16
2023-04-12T07:02:52.332Z,100669.00
2023-04-12T07:05:22.284Z,100775.31
2023-04-12T07:07:50.268Z,100777.41
2023-04-12T07:10:18.515Z,100742.09
2023-04-12T07:12:46.774Z,100765.47
2023-04-12T07:15:14.771Z,100714.19
2023-04-12T07:17:42.782Z,100778.84
2023-04-12T07:20:11.916Z,100774.28
2023-04-12T07:22:41.427Z,100775.66
2023-04-12T07:25:11.028Z,100772.53
2023-04-12T07:27:38.889Z,100782.34
2023-04-12T07:30:09.815Z,100777.16
2023-04-12T07:32:37.777Z,100758.03
2023-04-12T07:35:08.169Z,100778.59
2023-04-12T07:37:37.094Z,100768.06
2023-04-12T07:40:07.900Z,100770.63
2023-04-12T07:42:35.788Z,100768.88
2023-04-12T07:45:04.104Z,100756.72
2023-04-12T07:47:32.984Z,100754.25
2023-04-12T07:50:00.939Z,100772.97
2023-04-12T07:52:28.920Z,100752.03
2023-04-12T07:54:56.820Z,100761.06
2023-04-12T07:57:26.399Z,100761.28
2023-04-12T07:59:54.603Z,100723.41
2023-04-12T08:02:26.217Z,100771.16
2023-04-12T08:04:56.392Z,100760.59
2023-04-12T08:07:24.252Z,100764.13
2023-04-12T08:09:52.198Z,100769.44
2023-04-12T08:12:21.636Z,100769.53
2023-04-12T08:14:51.034Z,100765.16
2023-04-12T08:17:18.907Z,100758.97
2023-04-12T08:19:46.904Z,100761.59
2023-04-12T08:22:14.876Z,100754.53
2023-04-12T08:24:42.739Z,100760.59
2023-04-12T08:27:13.938Z,100758.66
2023-04-12T08:29:41.914Z,100755.88
2023-04-12T08:32:12.714Z,100763.78
2023-04-12T08:34:41.059Z,100700.25
2023-04-12T08:37:08.940Z,100753.88
2023-04-12T08:39:37.728Z,100751.88
2023-04-12T08:42:06.129Z,100745.56
2023-04-12T08:44:37.942Z,100663.56
2023-04-12T08:47:07.923Z,100747.09
2023-04-12T08:49:37.226Z,100650.88
2023-04-12T08:52:06.882Z,100661.97
2023-04-12T08:54:35.613Z,100658.19
2023-04-12T08:57:06.648Z,100741.63
2023-04-12T08:59:39.342Z,100741.44
2023-04-12T09:02:07.355Z,100747.88
2023-04-12T09:04:35.313Z,100689.81
2023-04-12T09:07:05.845Z,100743.28
2023-04-12T09:09:43.636Z,100743.91
2023-04-12T09:12:12.694Z,100750.84
2023-04-12T09:14:44.145Z,100747.19
2023-04-12T09:17:25.115Z,100738.28
2023-04-12T09:19:53.591Z,100678.31
2023-04-12T09:22:34.866Z,100738.78
2023-04-12T09:25:03.062Z,100741.22
2023-04-12T09:27:30.917Z,100749.06
2023-04-12T09:30:09.198Z,100581.59
2023-04-12T09:32:37.442Z,100743.31
2023-04-12T09:35:06.119Z,100693.13
2023-04-12T09:37:36.898Z,100697.19
2023-04-12T09:40:07.217Z,100747.88
2023-04-12T09:42:36.470Z,100745.81
2023-04-12T09:45:22.297Z,100692.00
2023-04-12T09:47:50.778Z,100725.94
2023-04-12T09:50:22.923Z,100747.06
2023-04-12T09:52:54.022Z,100743.94
2023-04-12T09:55:23.493Z,100748.59
2023-04-12T09:57:53.073Z,100662.31
2023-04-12T10:00:24.903Z,100742.34
2023-04-12T10:02:54.477Z,100611.91
2023-04-12T10:05:25.283Z,100741.13
2023-04-12T10:07:55.403Z,100705.75
2023-04-12T10:10:24.333Z,100689.69
2023-04-12T10:12:52.869Z,100717.31
2023-04-12T10:15:22.282Z,100735.25
2023-04-12T10:17:52.976Z,100742.56
2023-04-12T10:20:24.810Z,100731.53
2023-04-12T10:22:59.822Z,100745.94
2023-04-12T10:25:31.028Z,100739.09
2023-04-12T10:28:14.333Z,100740.88
2023-04-12T10:30:42.309Z,100716.94
2023-04-12T10:33:15.134Z,100739.84
2023-04-12T10:36:03.112Z,100741.38
2023-04-12T10:38:46.652Z,100746.31
2023-04-12T10:41:17.347Z,100747.88
2023-04-12T10:43:46.425Z,100740.03
2023-04-12T10:46:53.358Z,100608.19
2023-04-12T10:49:21.523Z,100731.63
2023-04-12T10:52:15.082Z,100743.25
2023-04-12T10:54:44.618Z,100742.41
2023-04-12T10:57:47.487Z,100750.75
2023-04-12T11:00:16.961Z,100753.09
2023-04-12T11:03:09.942Z,100749.09
2023-04-12T11:06:09.159Z,100752.91
2023-04-12T11:08:48.249Z,100751.22
2023-04-12T11:11:22.765Z,100751.59
2023-04-12T11:13:56.035Z,100744.38
2023-04-12T11:16:24.148Z,100739.94
2023-04-12T11:18:53.009Z,100757.50
2023-04-12T11:21:22.607Z,100760.56
2023-04-12T11:23:55.372Z,100653.75
2023-04-12T11:26:25.684Z,100751.28
2023-04-12T11:28:56.030Z,100759.03
2023-04-12T11:31:24.560Z,100756.66
2023-04-12T11:33:52.771Z,100760.28
2023-04-12T11:36:20.956Z,100764.34
2023-04-12T11:38:50.369Z,100760.34
2023-04-12T11:41:18.679Z,100756.00
2023-04-12T11:43:49.749Z,100752.66
2023-04-12T11:46:18.614Z,100760.91
2023-04-12T11:48:47.657Z,100754.94
2023-04-12T11:51:20.703Z,100756.13
2023-04-12T11:53:54.391Z,100713.84
2023-04-12T11:56:22.603Z,100744.13
2023-04-12T11:58:52.037Z,100694.81
2023-04-12T12:01:21.584Z,100760.03
2023-04-12T12:03:50.442Z,100746.66
2023-04-12T12:06:20.754Z,100745.31
2023-04-12T12:08:50.879Z,100741.81
2023-04-12T12:11:21.561Z,100737.31
2023-04-12T12:13:52.117Z,100752.47
2023-04-12T12:16:25.499Z,100743.00
2023-04-12T12:18:53.689Z,100733.34
2023-04-12T12:21:22.086Z,100745.41
2023-04-12T12:23:50.858Z,100747.81
2023-04-12T12:26:22.915Z,100740.25
2023-04-12T12:28:53.618Z,100729.00
2023-04-12T12:31:23.542Z,100733.44
2023-04-12T12:33:56.833Z,100732.28
2023-04-12T12:36:33.288Z,100672.97
2023-04-12T12:39:06.892Z,100679.59
2023-04-12T12:41:36.170Z,100735.78
2023-04-12T12:44:07.175Z,100700.97
2023-04-12T12:49:06.228Z,100737.38
2023-04-12T12:51:34.159Z,100739.22
2023-04-12T12:54:02.066Z,100740.28
2023-04-12T12:56:30.286Z,100729.63
2023-04-12T12:58:58.548Z,100737.59
2023-04-12T13:01:28.681Z,100734.16
2023-04-12T13:03:59.371Z,100748.13
2023-04-12T13:06:28.329Z,100730.06
2023-04-12T13:08:56.622Z,100737.38
2023-04-12T13:11:24.991Z,100717.69
2023-04-12T13:13:52.800Z,100720.41
2023-04-12T13:16:20.722Z,100692.38
2023-04-12T13:18:50.260Z,100721.28
2023-04-12T13:21:18.072Z,100724.84
2023-04-12T13:23:45.927Z,100729.66
2023-04-12T13:26:14.388Z,100706.22
2023-04-12T13:28:42.235Z,100726.66
2023-04-12T13:31:10.070Z,100609.34
2023-04-12T13:33:38.401Z,100731.72
2023-04-12T13:36:08.143Z,100719.78
2023-04-12T13:38:36.080Z,100731.41
2023-04-12T13:41:04.183Z,100729.91
2023-04-12T13:43:31.999Z,100734.78
2023-04-12T13:46:00.998Z,100736.00
2023-04-12T13:48:29.127Z,100749.66
2023-04-12T13:50:56.969Z,100746.97
2023-04-12T13:53:26.368Z,100744.84
2023-04-12T13:55:54.450Z,100733.31
2023-04-12T13:58:22.289Z,100735.22
2023-04-12T14:00:50.203Z,100726.88
2023-04-12T14:03:21.418Z,100724.69
2023-04-12T14:05:49.287Z,100715.94
2023-04-12T14:08:17.211Z,100684.59
2023-04-12T14:10:46.666Z,100722.44
2023-04-12T14:13:14.576Z,100716.81
2023-04-12T14:15:42.464Z,100707.06
2023-04-12T14:18:10.390Z,100719.56
2023-04-12T14:20:38.244Z,100705.00
2023-04-12T14:23:08.023Z,100729.09
2023-04-12T14:25:37.227Z,100720.91
2023-04-12T14:28:06.448Z,100742.28
2023-04-12T14:30:34.480Z,100742.91
2023-04-12T14:33:02.679Z,100740.41
2023-04-12T14:35:31.037Z,100737.97
2023-04-12T14:37:58.890Z,100746.47
2023-04-12T14:40:30.391Z,100752.19
2023-04-12T14:42:58.343Z,100744.84
2023-04-12T14:45:28.187Z,100696.84
2023-04-12T14:47:56.395Z,100656.53
2023-04-12T14:50:24.559Z,100745.63
2023-04-12T14:52:52.443Z,100752.28
2023-04-12T14:55:20.997Z,100730.63
2023-04-12T14:57:48.858Z,100723.66
2023-04-12T15:00:17.604Z,100763.41
2023-04-12T15:02:48.988Z,100771.22
2023-04-12T15:05:17.164Z,100782.47
2023-04-12T15:07:46.161Z,100745.00
2023-04-12T15:10:14.499Z,100753.59
2023-04-12T15:12:42.660Z,100771.09
2023-04-12T15:15:11.753Z,100764.81
2023-04-12T15:17:39.889Z,100573.31
2023-04-12T15:20:11.542Z,100699.06
2023-04-12T15:22:41.213Z,100768.06
2023-04-12T15:25:10.702Z,100762.84
2023-04-12T15:27:38.635Z,100758.38
2023-04-12T15:30:11.116Z,100755.69
2023-04-12T15:32:42.405Z,100758.22
2023-04-12T15:35:25.228Z,100754.69
2023-04-12T15:37:55.233Z,100753.31
2023-04-12T15:40:24.669Z,100749.50
2023-04-12T15:42:52.541Z,100731.38
2023-04-12T15:45:20.367Z,100738.56
2023-04-12T15:47:48.738Z,100711.25
2023-04-12T15:50:19.074Z,100741.31
2023-04-12T15:52:47.372Z,100743.09
2023-04-12T15:55:17.194Z,100732.50
2023-04-12T15:57:45.042Z,100732.50
2023-04-12T16:00:25.085Z,100736.03
2023-04-12T16:02:56.255Z,100744.84
2023-04-12T16:05:26.787Z,100734.25
2023-04-12T16:07:54.940Z,100730.72
2023-04-12T16:10:23.805Z,100675.06
2023-04-12T16:12:53.246Z,100733.25
2023-04-12T16:15:22.048Z,100732.25
2023-04-12T16:17:53.287Z,100740.25
2023-04-12T16:20:22.475Z,100739.38
2023-04-12T16:22:54.616Z,100738.47
2023-04-12T16:25:23.385Z,100740.22
2023-04-12T16:27:53.373Z,100743.75
2023-04-12T16:30:22.873Z,100723.50
2023-04-12T16:32:52.242Z,100753.56
2023-04-12T16:35:20.266Z,100742.97
2023-04-12T16:37:48.542Z,100742.97
2023-04-12T16:40:18.189Z,100749.13
2023-04-12T16:42:46.075Z,100749.06
2023-04-12T16:45:15.322Z,100758.59
2023-04-12T16:47:43.492Z,100722.09
2023-04-12T16:50:13.468Z,100724.63
2023-04-12T16:52:41.974Z,100691.47
2023-04-12T16:55:12.323Z,100755.81
2023-04-12T16:57:42.941Z,100758.97
2023-04-12T17:00:20.641Z,100766.50
2023-04-12T17:02:50.254Z,100757.44
2023-04-12T17:05:19.879Z,100617.31
2023-04-12T17:07:49.946Z,100772.66
2023-04-12T17:10:18.638Z,100765.97
2023-04-12T17:12:49.132Z,100763.78
2023-04-12T17:15:18.612Z,100763.22
2023-04-12T17:17:48.910Z,100762.91
2023-04-12T17:20:17.380Z,100767.88
2023-04-12T17:22:45.640Z,100771.28
2023-04-12T17:25:14.131Z,100767.63
2023-04-12T17:27:42.499Z,100777.97
2023-04-12T17:30:13.185Z,100779.66
2023-04-12T17:32:41.467Z,100769.59
2023-04-12T17:35:10.134Z,100775.69
2023-04-12T17:37:38.807Z,100773.84
2023-04-12T17:40:10.434Z,100775.47
2023-04-12T17:42:39.296Z,100754.81
2023-04-12T17:45:11.076Z,100682.88
2023-04-12T17:47:40.693Z,100735.09
2023-04-12T17:50:11.265Z,100784.63
2023-04-12T17:52:39.824Z,100779.25
2023-04-12T17:55:10.145Z,100761.44
2023-04-12T17:57:38.166Z,100785.38
2023-04-12T18:00:09.508Z,100778.13
2023-04-12T18:02:37.472Z,100783.56
2023-04-12T18:05:07.754Z,100787.69
2023-04-12T18:07:35.741Z,100765.31
2023-04-12T18:10:03.788Z,100762.69
2023-04-12T18:12:32.281Z,100792.69
2023-04-12T18:15:00.158Z,100794.31
2023-04-12T18:17:28.259Z,100796.84
2023-04-12T18:19:56.316Z,100798.50
2023-04-12T18:22:25.680Z,100803.69
2023-04-12T18:24:54.610Z,100760.97
2023-04-12T18:27:22.533Z,100784.75
2023-04-12T18:29:50.410Z,100811.19
2023-04-12T18:32:18.385Z,100799.38
2023-04-12T18:34:46.347Z,100815.44
2023-04-12T18:37:14.242Z,100823.94
2023-04-12T18:39:43.608Z,100737.56
2023-04-12T18:42:11.542Z,100819.88
2023-04-12T18:44:40.594Z,100775.97
2023-04-12T18:47:08.676Z,100815.59
2023-04-12T18:49:36.746Z,100827.09
2023-04-12T18:52:04.786Z,100804.78
2023-04-12T18:54:32.761Z,100832.81
2023-04-12T18:57:03.477Z,100822.06
2023-04-12T18:59:32.101Z,100829.84
2023-04-12T19:02:00.269Z,100825.44
2023-04-12T19:04:28.371Z,100833.25
2023-04-12T19:06:57.461Z,100823.38
2023-04-12T19:09:25.498Z,100824.00
2023-04-12T19:11:55.504Z,100825.50
2023-04-12T19:14:25.272Z,100821.75
2023-04-12T19:16:53.285Z,100827.63
2023-04-12T19:19:21.380Z,100832.66
2023-04-12T19:21:49.476Z,100830.78
2023-04-12T19:24:17.549Z,100828.06
2023-04-12T19:26:47.741Z,100804.72
2023-04-12T19:29:16.085Z,100839.03
2023-04-12T19:31:47.429Z,100783.81
2023-04-12T19:34:17.949Z,100833.66
2023-04-12T19:36:46.233Z,100829.91
2023-04-12T19:39:15.753Z,100833.09
2023-04-12T19:41:43.746Z,100818.72
2023-04-12T19:44:12.031Z,100830.97
2023-04-12T19:46:40.061Z,100811.03
2023-04-12T19:49:09.626Z,100796.53
2023-04-12T19:51:37.799Z,100860.13
2023-04-12T19:54:05.751Z,100853.19
2023-04-12T19:56:33.997Z,100847.91
2023-04-12T19:59:02.647Z,100842.63
2023-04-12T20:01:30.759Z,100845.28
2023-04-12T20:03:58.861Z,100858.34
2023-04-12T20:06:28.819Z,100857.47
2023-04-12T20:08:57.068Z,100855.75
2023-04-12T20:11:25.508Z,100860.19
2023-04-12T20:13:53.370Z,100858.25
2023-04-12T20:16:21.339Z,100878.13
2023-04-12T20:18:51.038Z,100846.41
2023-04-12T20:21:19.183Z,100832.84
2023-04-12T20:23:51.077Z,100846.19
2023-04-12T20:26:19.172Z,100846.47
2023-04-12T20:28:47.006Z,100859.66
2023-04-12T20:31:15.190Z,100866.72
2023-04-12T20:33:43.314Z,100870.31
2023-04-12T20:36:11.571Z,100882.56
2023-04-12T20:38:39.917Z,100869.38
2023-04-12T20:41:10.685Z,100868.44
2023-04-12T20:43:45.152Z,100885.00
2023-04-12T20:46:15.686Z,100819.47
2023-04-12T20:48:43.761Z,100873.78
2023-04-12T20:51:13.788Z,100860.81
2023-04-12T20:53:43.680Z,100854.84
2023-04-12T20:56:13.176Z,100853.19
2023-04-12T20:58:42.041Z,100853.19
2023-04-12T21:01:14.620Z,100859.34
2023-04-12T21:03:43.732Z,100853.28
2023-04-12T21:06:11.990Z,100813.94
2023-04-12T21:08:39.978Z,100855.69
2023-04-12T21:11:08.215Z,100880.13
2023-04-12T21:13:37.491Z,100882.72
2023-04-12T21:16:07.209Z,100858.25
2023-04-12T21:18:36.297Z,100779.09
2023-04-12T21:21:04.224Z,100873.78
2023-04-12T21:23:32.067Z,100858.97
2023-04-12T21:26:02.664Z,100859.03
2023-04-12T21:28:31.062Z,100850.41
2023-04-12T21:31:00.340Z,100846.06
2023-04-12T21:33:28.246Z,100811.25
2023-04-12T21:35:57.278Z,100775.53
2023-04-12T21:38:25.656Z,100811.19
2023-04-12T21:40:57.448Z,100820.06
2023-04-12T21:43:25.503Z,100823.53
2023-04-12T21:45:54.565Z,100819.19
2023-04-12T21:48:23.999Z,100812.22
2023-04-12T21:50:52.396Z,100831.53
2023-04-12T21:53:20.287Z,100802.44
2023-04-12T21:55:49.758Z,100810.41
2023-04-12T21:58:18.180Z,100752.06
2023-04-12T22:00:46.125Z,100817.31
2023-04-12T22:03:14.411Z,100788.69
2023-04-12T22:05:48.666Z,100808.00
2023-04-12T22:08:23.883Z,100768.53
2023-04-12T22:10:54.069Z,100807.56
2023-04-12T22:13:24.899Z,100803.06
2023-04-12T22:15:53.717Z,100799.50
2023-04-12T22:18:22.120Z,100802.13
2023-04-12T22:20:51.495Z,100792.38
2023-04-12T22:23:19.496Z,100810.22
2023-04-12T22:25:47.367Z,100815.50
2023-04-12T22:28:17.230Z,100817.19
2023-04-12T22:30:46.866Z,100816.22
2023-04-12T22:33:16.127Z,100825.75
2023-04-12T22:35:44.255Z,100747.84
2023-04-12T22:38:14.875Z,100807.41
2023-04-12T22:40:42.765Z,100824.78
2023-04-12T22:43:18.100Z,100826.47
2023-04-12T22:45:47.095Z,100829.06
2023-04-12T22:48:15.924Z,100809.94
2023-04-12T22:50:45.241Z,100832.53
2023-04-12T22:53:15.945Z,100845.38
2023-04-12T22:55:45.031Z,100804.13
2023-04-12T22:58:13.028Z,100816.28
2023-04-12T23:00:41.046Z,100815.50
2023-04-12T23:03:10.919Z,100823.53
2023-04-12T23:05:42.382Z,100825.53
2023-04-12T23:08:10.420Z,100817.75
2023-04-12T23:10:40.366Z,100817.75
2023-04-12T23:13:08.300Z,100806.50
2023-04-12T23:15:36.363Z,100738.91
2023-04-12T23:18:05.202Z,100812.94
2023-04-12T23:20:35.387Z,100801.53
2023-04-12T23:23:03.626Z,100787.06
2023-04-12T23:25:39.520Z,100806.78
2023-04-12T23:28:13.542Z,100638.84
2023-04-12T23:30:44.168Z,100802.34
2023-04-12T23:33:12.719Z,100799.88
2023-04-12T23:35:41.689Z,100793.75
2023-04-12T23:38:11.079Z,100807.88
2023-04-12T23:40:38.956Z,100811.22
2023-04-12T23:43:09.041Z,100806.72
2023-04-12T23:45:37.123Z,100805.72
2023-04-12T23:48:05.817Z,100804.84
2023-04-12T23:50:33.835Z,100793.44
2023-04-12T23:53:01.910Z,100799.50
2023-04-12T23:55:29.828Z,100795.06
2023-04-12T23:57:57.744Z,100708.78
